createdAt,value
2022-10-18T00:01:00.873Z,5.17
2022-10-18T00:03:28.882Z,4.83
2022-10-18T00:05:56.859Z,5.30
2022-10-18T00:08:24.882Z,6.30
2022-10-18T00:10:54.316Z,5.60
2022-10-18T00:13:22.845Z,5.63
2022-10-18T00:15:52.142Z,4.57
2022-10-18T00:18:20.160Z,5.20
2022-10-18T00:20:57.647Z,5.33
2022-10-18T00:23:25.666Z,4.13
2022-10-18T00:26:02.468Z,4.87
2022-10-18T00:28:30.774Z,4.83
2022-10-18T00:30:58.757Z,5.70
2022-10-18T00:33:26.662Z,4.80
2022-10-18T00:35:54.509Z,4.23
2022-10-18T00:38:22.296Z,4.63
2022-10-18T00:40:50.149Z,5.40
2022-10-18T00:43:19.592Z,5.70
2022-10-18T00:45:47.439Z,4.80
2022-10-18T00:48:17.405Z,5.07
2022-10-18T00:50:45.294Z,4.87
2022-10-18T00:53:19.823Z,4.83
2022-10-18T00:55:48.061Z,4.97
2022-10-18T00:58:20.230Z,4.70
2022-10-18T01:00:48.351Z,4.07
2022-10-18T01:03:16.318Z,5.00
2022-10-18T01:05:46.654Z,4.50
2022-10-18T01:08:47.029Z,4.67
2022-10-18T01:11:25.485Z,4.03
2022-10-18T01:14:11.869Z,4.67
2022-10-18T01:16:49.752Z,4.37
2022-10-18T01:19:46.089Z,4.20
2022-10-18T01:22:18.525Z,5.40
2022-10-18T01:25:07.865Z,4.53
2022-10-18T01:27:58.284Z,4.50
2022-10-18T01:30:39.212Z,4.70
2022-10-18T01:33:16.785Z,4.73
2022-10-18T01:35:50.501Z,4.70
2022-10-18T01:38:21.163Z,4.20
2022-10-18T01:40:52.369Z,4.27
2022-10-18T01:43:24.406Z,4.67
2022-10-18T01:45:55.772Z,4.47
2022-10-18T01:48:24.162Z,3.90
2022-10-18T01:50:54.169Z,4.60
2022-10-18T01:53:23.931Z,4.03
2022-10-18T01:56:02.814Z,3.80
2022-10-18T01:58:37.906Z,3.70
2022-10-18T02:01:12.636Z,4.27
2022-10-18T02:03:47.102Z,3.83
2022-10-18T02:06:21.350Z,4.10
2022-10-18T02:08:53.524Z,4.20
2022-10-18T02:11:21.569Z,4.00
2022-10-18T02:13:54.835Z,4.00
2022-10-18T02:16:28.190Z,4.40
2022-10-18T02:18:59.990Z,4.10
2022-10-18T02:21:30.780Z,4.13
2022-10-18T02:24:01.097Z,3.80
2022-10-18T02:26:29.230Z,3.77
2022-10-18T02:28:57.453Z,3.77
2022-10-18T02:31:30.982Z,3.63
2022-10-18T02:34:01.741Z,3.40
2022-10-18T02:36:33.651Z,3.80
2022-10-18T02:39:07.612Z,3.70
2022-10-18T02:41:35.695Z,4.30
2022-10-18T02:44:03.489Z,3.70
2022-10-18T02:46:32.814Z,3.90
2022-10-18T02:49:00.752Z,4.33
2022-10-18T02:51:28.727Z,4.13
2022-10-18T02:53:56.785Z,3.50
2022-10-18T02:56:24.617Z,3.73
2022-10-18T02:58:52.461Z,4.20
2022-10-18T03:01:20.655Z,3.10
2022-10-18T03:03:50.421Z,3.83
2022-10-18T03:06:18.504Z,3.60
2022-10-18T03:08:46.898Z,3.73
2022-10-18T03:11:14.742Z,3.30
2022-10-18T03:13:42.738Z,4.33
2022-10-18T03:16:10.804Z,4.47
2022-10-18T03:18:38.836Z,4.00
2022-10-18T03:21:09.428Z,3.63
2022-10-18T03:23:37.847Z,4.00
2022-10-18T03:26:05.922Z,3.87
2022-10-18T03:28:33.719Z,3.73
2022-10-18T03:31:02.753Z,3.40
2022-10-18T03:33:31.160Z,3.80
2022-10-18T03:35:59.070Z,3.53
2022-10-18T03:38:28.523Z,3.30
2022-10-18T03:40:56.241Z,3.63
2022-10-18T03:43:24.363Z,3.90
2022-10-18T03:45:52.318Z,3.47
2022-10-18T03:48:19.932Z,3.60
2022-10-18T03:50:47.613Z,4.17
2022-10-18T03:53:15.339Z,4.10
2022-10-18T03:55:44.325Z,3.40
2022-10-18T03:58:12.087Z,3.60
2022-10-18T04:00:39.814Z,3.43
2022-10-18T04:03:07.425Z,3.87
2022-10-18T04:05:36.509Z,4.40
2022-10-18T04:08:04.684Z,4.10
2022-10-18T04:10:32.512Z,3.50
2022-10-18T04:13:01.559Z,3.10
2022-10-18T04:15:29.201Z,3.40
2022-10-18T04:17:57.311Z,4.00
2022-10-18T04:20:24.999Z,3.37
2022-10-18T04:22:54.944Z,3.20
2022-10-18T04:25:23.115Z,3.57
2022-10-18T04:27:51.009Z,3.90
2022-10-18T04:30:20.244Z,4.80
2022-10-18T04:32:48.190Z,4.40
2022-10-18T04:35:16.110Z,3.93
2022-10-18T04:37:43.881Z,4.77
2022-10-18T04:40:12.750Z,3.80
2022-10-18T04:42:40.574Z,4.00
2022-10-18T04:45:09.637Z,3.53
2022-10-18T04:47:39.074Z,3.67
2022-10-18T04:50:07.773Z,4.47
2022-10-18T04:52:35.681Z,4.03
2022-10-18T04:55:03.530Z,2.80
2022-10-18T04:57:31.799Z,3.10
2022-10-18T04:59:59.843Z,3.70
2022-10-18T05:02:27.739Z,3.00
2022-10-18T05:04:56.886Z,3.43
2022-10-18T05:07:24.882Z,3.70
2022-10-18T05:09:52.729Z,4.60
2022-10-18T05:12:20.517Z,3.83
2022-10-18T05:14:48.467Z,4.10
2022-10-18T05:17:16.563Z,4.17
2022-10-18T05:19:44.474Z,3.80
2022-10-18T05:22:13.714Z,3.30
2022-10-18T05:24:41.555Z,3.00
2022-10-18T05:27:10.296Z,3.60
2022-10-18T05:29:38.238Z,3.23
2022-10-18T05:32:06.285Z,3.20
2022-10-18T05:34:34.206Z,4.50
2022-10-18T05:37:02.075Z,3.47
2022-10-18T05:39:31.470Z,3.73
2022-10-18T05:42:00.110Z,3.90
2022-10-18T05:44:28.247Z,3.80
2022-10-18T05:46:56.136Z,4.30
2022-10-18T05:49:24.031Z,3.70
2022-10-18T05:51:52.099Z,4.00
2022-10-18T05:54:21.069Z,3.83
2022-10-18T05:56:50.659Z,3.70
2022-10-18T05:59:18.487Z,3.80
2022-10-18T06:01:46.776Z,3.67
2022-10-18T06:04:14.618Z,3.90
2022-10-18T06:06:42.386Z,3.50
2022-10-18T06:09:10.428Z,4.20
2022-10-18T06:11:38.530Z,3.87
2022-10-18T06:14:09.515Z,3.80
2022-10-18T06:19:10.226Z,3.57
2022-10-18T06:21:38.135Z,3.70
2022-10-18T06:24:06.699Z,3.43
2022-10-18T06:26:34.648Z,3.60
2022-10-18T06:29:02.475Z,4.10
2022-10-18T06:31:31.895Z,4.40
2022-10-18T06:34:00.101Z,3.73
2022-10-18T06:36:28.498Z,3.60
2022-10-18T06:38:56.866Z,4.20
2022-10-18T06:41:25.422Z,3.70
2022-10-18T06:43:56.992Z,3.80
2022-10-18T06:46:26.012Z,3.80
2022-10-18T06:48:55.491Z,3.00
2022-10-18T06:51:23.311Z,4.07
2022-10-18T06:54:06.302Z,4.80
2022-10-18T06:56:39.384Z,4.00
2022-10-18T06:59:07.300Z,3.70
2022-10-18T07:01:35.181Z,4.07
2022-10-18T07:04:04.967Z,3.83
2022-10-18T07:06:32.894Z,4.30
2022-10-18T07:09:02.967Z,3.80
2022-10-18T07:11:30.932Z,3.70
2022-10-18T07:14:03.172Z,4.20
2022-10-18T07:16:31.693Z,3.70
2022-10-18T07:18:59.538Z,3.83
2022-10-18T07:21:29.046Z,3.97
2022-10-18T07:23:57.635Z,3.80
2022-10-18T07:26:27.227Z,3.60
2022-10-18T07:28:57.944Z,3.70
2022-10-18T07:31:26.513Z,3.80
2022-10-18T07:33:54.720Z,3.10
2022-10-18T07:36:22.824Z,3.70
2022-10-18T07:38:53.091Z,3.70
2022-10-18T07:41:21.790Z,4.00
2022-10-18T07:43:51.903Z,3.70
2022-10-18T07:46:21.862Z,4.00
2022-10-18T07:48:49.976Z,3.53
2022-10-18T07:51:18.640Z,4.20
2022-10-18T07:53:46.710Z,4.23
2022-10-18T07:56:17.204Z,3.47
2022-10-18T07:58:46.008Z,4.30
2022-10-18T08:01:15.222Z,3.40
2022-10-18T08:03:43.503Z,4.20
2022-10-18T08:06:13.532Z,3.63
2022-10-18T08:08:42.181Z,4.00
2022-10-18T08:11:11.656Z,3.97
2022-10-18T08:13:40.747Z,4.00
2022-10-18T08:16:10.129Z,3.70
2022-10-18T08:18:38.534Z,3.47
2022-10-18T08:21:08.380Z,3.93
2022-10-18T08:23:36.808Z,3.80
2022-10-18T08:26:06.172Z,4.03
2022-10-18T08:28:36.635Z,3.50
2022-10-18T08:31:06.662Z,3.90
2022-10-18T08:33:35.863Z,3.53
2022-10-18T08:36:06.789Z,3.80
2022-10-18T08:38:35.187Z,4.10
2022-10-18T08:41:20.372Z,4.10
2022-10-18T08:43:56.577Z,3.80
2022-10-18T08:46:25.808Z,3.47
2022-10-18T08:48:57.866Z,4.43
2022-10-18T08:51:30.716Z,3.90
2022-10-18T08:54:05.774Z,4.10
2022-10-18T08:56:35.244Z,4.03
2022-10-18T08:59:03.645Z,4.53
2022-10-18T09:01:43.866Z,3.90
2022-10-18T09:04:32.758Z,3.80
2022-10-18T09:07:19.037Z,4.03
2022-10-18T09:09:53.991Z,3.43
2022-10-18T09:12:36.003Z,3.90
2022-10-18T09:15:17.087Z,3.30
2022-10-18T09:18:10.244Z,3.60
2022-10-18T09:20:50.208Z,3.30
2022-10-18T09:23:38.037Z,3.17
2022-10-18T09:26:11.915Z,3.50
2022-10-18T09:28:47.190Z,3.00
2022-10-18T09:31:20.292Z,3.40
2022-10-18T09:33:57.352Z,2.97
2022-10-18T09:36:30.537Z,2.50
2022-10-18T09:39:03.235Z,3.07
2022-10-18T09:41:35.642Z,2.90
2022-10-18T09:44:07.478Z,2.90
2022-10-18T09:46:39.860Z,3.10
2022-10-18T09:49:16.360Z,3.80
2022-10-18T09:51:45.641Z,4.80
2022-10-18T09:54:28.418Z,4.77
2022-10-18T09:57:02.238Z,4.10
2022-10-18T09:59:38.343Z,4.30
2022-10-18T10:02:07.392Z,4.17
2022-10-18T10:04:36.487Z,3.70
2022-10-18T10:07:09.146Z,3.73
2022-10-18T10:09:41.285Z,3.90
2022-10-18T10:12:26.633Z,4.60
2022-10-18T10:14:54.486Z,3.83
2022-10-18T10:17:26.078Z,4.60
2022-10-18T10:20:04.260Z,3.83
2022-10-18T10:22:36.994Z,4.30
2022-10-18T10:25:06.067Z,4.83
2022-10-18T10:27:43.249Z,4.13
2022-10-18T10:30:24.802Z,4.00
2022-10-18T10:32:54.695Z,4.40
2022-10-18T10:35:35.485Z,4.80
2022-10-18T10:38:26.045Z,4.03
2022-10-18T10:40:57.674Z,3.57
2022-10-18T10:43:44.544Z,4.70
2022-10-18T10:46:14.893Z,3.80
2022-10-18T10:48:49.760Z,4.40
2022-10-18T10:51:30.558Z,4.33
2022-10-18T10:54:03.820Z,4.23
2022-10-18T10:56:34.045Z,3.90
2022-10-18T10:59:14.305Z,4.30
2022-10-18T11:01:43.615Z,3.27
2022-10-18T11:04:26.677Z,3.63
2022-10-18T11:07:07.297Z,4.83
2022-10-18T11:09:44.922Z,4.37
2022-10-18T11:12:28.133Z,4.27
2022-10-18T11:15:18.110Z,4.50
2022-10-18T11:17:51.439Z,4.47
2022-10-18T11:20:25.817Z,4.63
2022-10-18T11:23:01.182Z,4.50
2022-10-18T11:25:41.669Z,4.63
2022-10-18T11:28:17.113Z,4.50
2022-10-18T11:31:01.232Z,4.97
2022-10-18T11:34:07.136Z,5.33
2022-10-18T11:36:36.738Z,4.60
2022-10-18T11:39:14.993Z,5.13
2022-10-18T11:41:51.699Z,4.50
2022-10-18T11:44:28.188Z,4.60
2022-10-18T11:47:05.764Z,4.37
2022-10-18T11:49:54.489Z,5.37
2022-10-18T11:52:30.270Z,4.20
2022-10-18T11:55:11.020Z,4.67
2022-10-18T11:57:46.976Z,3.93
2022-10-18T12:00:39.337Z,3.80
2022-10-18T12:03:31.023Z,4.60
2022-10-18T12:06:04.940Z,4.00
2022-10-18T12:08:38.457Z,4.30
2022-10-18T12:11:15.779Z,4.50
2022-10-18T12:13:48.485Z,5.10
2022-10-18T12:16:17.412Z,3.60
2022-10-18T12:18:55.279Z,3.57
2022-10-18T12:21:26.319Z,4.03
2022-10-18T12:23:57.504Z,4.33
2022-10-18T12:26:28.758Z,4.30
2022-10-18T12:29:05.034Z,3.73
2022-10-18T12:31:38.722Z,3.60
2022-10-18T12:34:23.567Z,3.30
2022-10-18T12:37:12.290Z,2.47
2022-10-18T12:40:05.389Z,2.43
2022-10-18T12:42:35.615Z,2.70
2022-10-18T12:45:05.526Z,2.60
2022-10-18T12:47:34.432Z,2.53
2022-10-18T12:50:07.463Z,2.70
2022-10-18T12:52:37.132Z,2.90
2022-10-18T12:55:29.344Z,2.90
2022-10-18T12:58:26.088Z,2.80
2022-10-18T13:00:56.550Z,2.67
2022-10-18T13:03:54.062Z,2.37
2022-10-18T13:06:23.531Z,3.50
2022-10-18T13:09:19.889Z,3.20
2022-10-18T13:11:51.056Z,3.97
2022-10-18T13:14:59.340Z,4.00
2022-10-18T13:17:43.782Z,3.70
2022-10-18T13:20:26.717Z,3.67
2022-10-18T13:23:09.737Z,3.40
2022-10-18T13:25:49.691Z,4.27
2022-10-18T13:28:30.647Z,3.47
2022-10-18T13:31:04.871Z,3.30
2022-10-18T13:33:39.058Z,3.60
2022-10-18T13:36:23.100Z,3.13
2022-10-18T13:39:03.201Z,3.00
2022-10-18T13:41:34.570Z,2.60
2022-10-18T13:44:25.215Z,2.83
2022-10-18T13:47:37.389Z,2.83
2022-10-18T13:50:35.309Z,2.30
2022-10-18T13:53:35.400Z,2.30
2022-10-18T13:56:37.816Z,2.20
2022-10-18T13:59:19.545Z,2.33
2022-10-18T14:02:00.718Z,1.80
2022-10-18T14:04:48.871Z,1.80
2022-10-18T14:07:19.158Z,1.90
2022-10-18T14:09:52.407Z,1.60
2022-10-18T14:12:29.873Z,1.80
2022-10-18T14:15:06.322Z,2.00
2022-10-18T14:17:40.907Z,2.60
2022-10-18T14:20:20.508Z,2.60
2022-10-18T14:22:54.216Z,3.60
2022-10-18T14:25:27.429Z,3.70
2022-10-18T14:28:10.028Z,3.17
2022-10-18T14:30:53.289Z,4.10
2022-10-18T14:33:29.016Z,4.40
2022-10-18T14:36:04.750Z,4.60
2022-10-18T14:38:32.671Z,3.40
2022-10-18T14:41:14.156Z,4.03
2022-10-18T14:43:42.029Z,4.30
2022-10-18T14:46:11.514Z,3.77
2022-10-18T14:48:39.347Z,3.27
2022-10-18T14:51:14.786Z,5.57
2022-10-18T14:53:42.850Z,3.83
2022-10-18T14:56:23.272Z,3.40
2022-10-18T14:58:52.383Z,3.50
2022-10-18T15:01:22.771Z,3.27
2022-10-18T15:03:51.159Z,3.50
2022-10-18T15:06:21.230Z,2.87
2022-10-18T15:08:54.144Z,4.20
2022-10-18T15:11:22.276Z,3.70
2022-10-18T15:13:53.544Z,3.80
2022-10-18T15:16:25.073Z,3.33
2022-10-18T15:19:09.311Z,3.70
2022-10-18T15:21:38.575Z,3.43
2022-10-18T15:24:30.723Z,3.30
2022-10-18T15:27:02.542Z,3.83
2022-10-18T15:29:36.348Z,4.20
2022-10-18T15:32:13.950Z,4.20
2022-10-18T15:34:41.839Z,3.20
2022-10-18T15:37:32.378Z,3.90
2022-10-18T15:40:37.963Z,3.80
2022-10-18T15:43:27.361Z,4.60
2022-10-18T15:46:00.251Z,4.60
2022-10-18T15:48:33.992Z,4.60
2022-10-18T15:51:04.743Z,4.80
2022-10-18T15:53:41.705Z,5.57
2022-10-18T15:56:26.834Z,4.20
2022-10-18T15:58:56.933Z,3.90
2022-10-18T16:01:33.433Z,4.10
2022-10-18T16:04:02.964Z,3.70
2022-10-18T16:06:30.700Z,4.53
2022-10-18T16:08:59.919Z,4.80
2022-10-18T16:11:28.318Z,6.37
2022-10-18T16:13:59.483Z,4.00
2022-10-18T16:16:30.207Z,4.30
2022-10-18T16:18:58.817Z,4.40
2022-10-18T16:21:28.712Z,4.40
2022-10-18T16:23:56.748Z,4.70
2022-10-18T16:26:27.220Z,4.17
2022-10-18T16:28:56.104Z,4.80
2022-10-18T16:31:26.516Z,5.20
2022-10-18T16:33:55.715Z,4.70
2022-10-18T16:36:25.646Z,3.90
2022-10-18T16:38:55.007Z,4.30
2022-10-18T16:41:23.050Z,5.00
2022-10-18T16:43:52.635Z,5.27
2022-10-18T16:46:22.685Z,4.83
2022-10-18T16:48:52.545Z,4.30
2022-10-18T16:51:20.606Z,5.47
2022-10-18T16:53:48.504Z,5.43
2022-10-18T16:56:18.180Z,4.77
2022-10-18T16:58:46.615Z,5.20
2022-10-18T17:01:17.913Z,5.27
2022-10-18T17:03:46.437Z,5.23
2022-10-18T17:06:17.393Z,5.33
2022-10-18T17:08:45.769Z,5.80
2022-10-18T17:11:14.925Z,4.80
2022-10-18T17:13:43.370Z,4.73
2022-10-18T17:16:23.048Z,5.30
2022-10-18T17:21:21.512Z,5.20
2022-10-18T17:23:50.030Z,4.80
2022-10-18T17:26:28.826Z,5.00
2022-10-18T17:29:00.208Z,5.63
2022-10-18T17:31:30.120Z,5.70
2022-10-18T17:34:01.420Z,5.97
2022-10-18T17:36:29.658Z,5.87
2022-10-18T17:38:58.341Z,5.40
2022-10-18T17:41:26.365Z,5.70
2022-10-18T17:43:54.227Z,5.27
2022-10-18T17:46:23.711Z,6.20
2022-10-18T17:48:52.909Z,5.60
2022-10-18T17:51:20.883Z,5.67
2022-10-18T17:53:48.641Z,4.90
2022-10-18T17:56:17.121Z,5.23
2022-10-18T17:58:45.634Z,5.63
2022-10-18T18:01:15.628Z,5.10
2022-10-18T18:03:43.639Z,5.30
2022-10-18T18:06:18.345Z,5.67
2022-10-18T18:08:47.269Z,5.70
2022-10-18T18:11:16.089Z,6.90
2022-10-18T18:13:44.208Z,6.37
2022-10-18T18:16:14.471Z,6.70
2022-10-18T18:18:43.112Z,6.40
2022-10-18T18:21:11.101Z,7.30
2022-10-18T18:23:40.636Z,7.07
2022-10-18T18:26:09.160Z,7.37
2022-10-18T18:28:38.439Z,7.23
2022-10-18T18:31:08.150Z,7.53
2022-10-18T18:33:37.500Z,8.37
2022-10-18T18:36:07.162Z,7.50
2022-10-18T18:38:37.538Z,6.80
2022-10-18T18:41:12.819Z,7.27
2022-10-18T18:43:42.882Z,7.80
2022-10-18T18:46:12.598Z,6.80
2022-10-18T18:48:41.296Z,6.77
2022-10-18T18:51:12.615Z,6.87
2022-10-18T18:53:41.115Z,7.83
2022-10-18T18:56:14.085Z,7.53
2022-10-18T18:58:44.245Z,6.80
2022-10-18T19:01:15.092Z,7.10
2022-10-18T19:03:43.325Z,7.00
2022-10-18T19:06:14.301Z,7.20
2022-10-18T19:08:44.699Z,7.30
2022-10-18T19:11:16.119Z,6.77
2022-10-18T19:13:44.069Z,7.30
2022-10-18T19:16:19.955Z,7.93
2022-10-18T19:18:55.996Z,7.00
2022-10-18T19:21:25.553Z,7.77
2022-10-18T19:23:54.418Z,8.83
2022-10-18T19:26:32.485Z,6.30
2022-10-18T19:29:06.954Z,7.20
2022-10-18T19:31:36.326Z,7.27
2022-10-18T19:34:08.209Z,8.37
2022-10-18T19:36:37.096Z,7.40
2022-10-18T19:39:07.541Z,6.73
2022-10-18T19:41:37.435Z,7.50
2022-10-18T19:44:05.895Z,8.83
2022-10-18T19:46:33.800Z,7.60
2022-10-18T19:49:01.656Z,8.63
2022-10-18T19:51:29.567Z,8.30
2022-10-18T19:53:58.265Z,7.70
2022-10-18T19:56:27.703Z,7.70
2022-10-18T19:58:57.751Z,8.10
2022-10-18T20:01:26.263Z,8.37
2022-10-18T20:03:54.702Z,7.80
2022-10-18T20:06:23.126Z,7.30
2022-10-18T20:08:51.304Z,7.70
2022-10-18T20:11:21.424Z,7.37
2022-10-18T20:13:49.514Z,7.30
2022-10-18T20:16:27.676Z,8.17
2022-10-18T20:18:57.182Z,8.17
2022-10-18T20:21:25.503Z,5.77
2022-10-18T20:23:53.741Z,7.63
2022-10-18T20:26:21.921Z,7.10
2022-10-18T20:28:56.113Z,7.37
2022-10-18T20:31:27.139Z,7.80
2022-10-18T20:33:56.702Z,7.20
2022-10-18T20:36:24.801Z,7.37
2022-10-18T20:38:53.256Z,7.93
2022-10-18T20:41:23.576Z,8.00
2022-10-18T20:43:52.710Z,7.57
2022-10-18T20:46:20.758Z,8.23
2022-10-18T20:48:50.451Z,8.50
2022-10-18T20:51:19.642Z,7.83
2022-10-18T20:53:47.953Z,8.63
2022-10-18T20:56:20.232Z,8.07
2022-10-18T20:58:49.400Z,7.63
2022-10-18T21:01:19.496Z,7.80
2022-10-18T21:03:50.882Z,7.90
2022-10-18T21:06:20.662Z,7.90
2022-10-18T21:08:49.102Z,7.17
2022-10-18T21:11:16.946Z,6.40
2022-10-18T21:13:44.774Z,7.70
2022-10-18T21:16:12.527Z,8.30
2022-10-18T21:18:40.532Z,7.60
2022-10-18T21:23:44.635Z,7.37
2022-10-18T21:26:15.584Z,7.00
2022-10-18T21:28:43.476Z,7.70
2022-10-18T21:31:14.497Z,7.23
2022-10-18T21:33:53.498Z,7.87
2022-10-18T21:36:23.924Z,7.87
2022-10-18T21:38:52.245Z,8.20
2022-10-18T21:41:22.125Z,6.70
2022-10-18T21:43:52.260Z,7.40
2022-10-18T21:46:21.951Z,6.90
2022-10-18T21:48:52.311Z,8.00
2022-10-18T21:51:22.923Z,7.57
2022-10-18T21:53:52.059Z,7.03
2022-10-18T21:56:21.748Z,7.50
2022-10-18T21:58:49.898Z,7.70
2022-10-18T22:01:19.389Z,7.60
2022-10-18T22:03:50.106Z,7.23
2022-10-18T22:06:18.770Z,6.80
2022-10-18T22:08:50.551Z,6.50
2022-10-18T22:11:19.167Z,6.97
2022-10-18T22:13:47.368Z,7.00
2022-10-18T22:16:17.428Z,6.67
2022-10-18T22:18:47.632Z,7.57
2022-10-18T22:21:17.843Z,7.40
2022-10-18T22:23:49.717Z,7.40
2022-10-18T22:26:22.650Z,7.30
2022-10-18T22:28:56.076Z,7.40
2022-10-18T22:31:27.042Z,6.60
2022-10-18T22:33:59.045Z,6.50
2022-10-18T22:36:27.622Z,6.97
2022-10-18T22:38:57.095Z,6.57
2022-10-18T22:41:25.073Z,6.53
2022-10-18T22:43:53.626Z,7.20
2022-10-18T22:46:21.993Z,7.10
2022-10-18T22:48:50.356Z,5.90
2022-10-18T22:51:18.460Z,6.33
2022-10-18T22:53:46.924Z,6.10
2022-10-18T22:56:19.080Z,6.63
2022-10-18T22:58:48.101Z,7.07
2022-10-18T23:01:18.489Z,7.43
2022-10-18T23:03:46.520Z,6.47
2022-10-18T23:06:23.405Z,6.53
2022-10-18T23:08:51.968Z,5.80
2022-10-18T23:11:21.259Z,6.53
2022-10-18T23:13:49.772Z,6.07
2022-10-18T23:16:18.400Z,6.30
2022-10-18T23:18:50.839Z,7.10
2022-10-18T23:21:19.124Z,6.70
2022-10-18T23:23:47.373Z,5.80
2022-10-18T23:26:17.426Z,5.63
2022-10-18T23:28:49.635Z,6.40
2022-10-18T23:31:19.686Z,6.00
2022-10-18T23:33:49.182Z,6.57
2022-10-18T23:36:17.661Z,6.40
2022-10-18T23:38:45.775Z,7.13
2022-10-18T23:41:14.799Z,6.70
2022-10-18T23:43:43.416Z,7.10
2022-10-18T23:46:14.166Z,7.07
2022-10-18T23:48:42.320Z,7.10
2022-10-18T23:51:10.745Z,7.43
2022-10-18T23:53:39.197Z,7.00
2022-10-18T23:56:09.662Z,6.77
2022-10-18T23:58:38.146Z,7.30
